sensor_id;sensor_type;location;lat;lon;timestamp;P1;durP1;ratioP1;P2;durP2;ratioP2
82797;SDS011;72540;62.834;27.606;2024-03-06T00:01:49;1.85;;;0.70;;
82797;SDS011;72540;62.834;27.606;2024-03-06T00:04:15;3.90;;;1.02;;
82797;SDS011;72540;62.834;27.606;2024-03-06T00:06:40;1.88;;;0.70;;
82797;SDS011;72540;62.834;27.606;2024-03-06T00:09:06;2.28;;;0.70;;
82797;SDS011;72540;62.834;27.606;2024-03-06T00:11:33;1.67;;;0.52;;
82797;SDS011;72540;62.834;27.606;2024-03-06T00:14:02;1.65;;;0.50;;
82797;SDS011;72540;62.834;27.606;2024-03-06T00:16:30;0.77;;;0.30;;
82797;SDS011;72540;62.834;27.606;2024-03-06T00:18:59;2.83;;;0.60;;
82797;SDS011;72540;62.834;27.606;2024-03-06T00:21:24;3.00;;;0.95;;
82797;SDS011;72540;62.834;27.606;2024-03-06T00:23:51;1.83;;;0.73;;
82797;SDS011;72540;62.834;27.606;2024-03-06T00:26:17;1.17;;;0.40;;
82797;SDS011;72540;62.834;27.606;2024-03-06T00:28:42;1.73;;;0.60;;
82797;SDS011;72540;62.834;27.606;2024-03-06T00:31:08;2.90;;;0.88;;
82797;SDS011;72540;62.834;27.606;2024-03-06T00:33:34;2.80;;;0.65;;
82797;SDS011;72540;62.834;27.606;2024-03-06T00:36:00;1.33;;;0.40;;
82797;SDS011;72540;62.834;27.606;2024-03-06T00:38:25;3.72;;;0.82;;
82797;SDS011;72540;62.834;27.606;2024-03-06T00:40:51;5.32;;;0.73;;
82797;SDS011;72540;62.834;27.606;2024-03-06T00:43:17;1.00;;;0.30;;
82797;SDS011;72540;62.834;27.606;2024-03-06T00:45:43;1.80;;;0.50;;
82797;SDS011;72540;62.834;27.606;2024-03-06T00:48:09;1.55;;;0.60;;
82797;SDS011;72540;62.834;27.606;2024-03-06T00:50:34;1.23;;;0.43;;
82797;SDS011;72540;62.834;27.606;2024-03-06T00:53:00;2.58;;;0.93;;
82797;SDS011;72540;62.834;27.606;2024-03-06T00:55:26;2.08;;;0.85;;
82797;SDS011;72540;62.834;27.606;2024-03-06T00:57:52;3.08;;;0.90;;
82797;SDS011;72540;62.834;27.606;2024-03-06T01:00:17;2.17;;;0.85;;
82797;SDS011;72540;62.834;27.606;2024-03-06T01:02:44;3.65;;;1.23;;
82797;SDS011;72540;62.834;27.606;2024-03-06T01:05:10;3.60;;;1.02;;
82797;SDS011;72540;62.834;27.606;2024-03-06T01:07:39;3.00;;;1.15;;
82797;SDS011;72540;62.834;27.606;2024-03-06T01:10:05;2.55;;;0.70;;
82797;SDS011;72540;62.834;27.606;2024-03-06T01:12:34;2.60;;;0.60;;
82797;SDS011;72540;62.834;27.606;2024-03-06T01:15:00;0.65;;;0.30;;
82797;SDS011;72540;62.834;27.606;2024-03-06T01:17:26;2.70;;;0.93;;
82797;SDS011;72540;62.834;27.606;2024-03-06T01:19:52;2.58;;;0.77;;
82797;SDS011;72540;62.834;27.606;2024-03-06T01:22:18;2.35;;;0.75;;
82797;SDS011;72540;62.834;27.606;2024-03-06T01:24:43;2.78;;;0.80;;
82797;SDS011;72540;62.834;27.606;2024-03-06T01:27:09;2.10;;;0.63;;
82797;SDS011;72540;62.834;27.606;2024-03-06T01:29:35;0.63;;;0.30;;
82797;SDS011;72540;62.834;27.606;2024-03-06T01:32:01;3.78;;;0.77;;
82797;SDS011;72540;62.834;27.606;2024-03-06T01:34:27;1.83;;;0.60;;
82797;SDS011;72540;62.834;27.606;2024-03-06T01:36:53;2.90;;;0.75;;
82797;SDS011;72540;62.834;27.606;2024-03-06T01:39:19;2.60;;;0.77;;
82797;SDS011;72540;62.834;27.606;2024-03-06T01:41:45;6.20;;;0.68;;
82797;SDS011;72540;62.834;27.606;2024-03-06T01:44:15;4.38;;;0.80;;
82797;SDS011;72540;62.834;27.606;2024-03-06T01:46:42;3.47;;;1.05;;
82797;SDS011;72540;62.834;27.606;2024-03-06T01:49:09;3.75;;;0.77;;
82797;SDS011;72540;62.834;27.606;2024-03-06T01:51:36;2.83;;;0.80;;
82797;SDS011;72540;62.834;27.606;2024-03-06T01:54:02;3.42;;;0.55;;
82797;SDS011;72540;62.834;27.606;2024-03-06T01:56:39;3.30;;;0.90;;
82797;SDS011;72540;62.834;27.606;2024-03-06T01:59:10;1.83;;;0.50;;
82797;SDS011;72540;62.834;27.606;2024-03-06T02:01:37;2.85;;;0.50;;
82797;SDS011;72540;62.834;27.606;2024-03-06T02:04:02;4.50;;;0.60;;
82797;SDS011;72540;62.834;27.606;2024-03-06T02:06:29;2.25;;;0.43;;
82797;SDS011;72540;62.834;27.606;2024-03-06T02:08:55;2.80;;;0.68;;
82797;SDS011;72540;62.834;27.606;2024-03-06T02:11:21;3.28;;;1.00;;
82797;SDS011;72540;62.834;27.606;2024-03-06T02:13:49;8.02;;;0.73;;
82797;SDS011;72540;62.834;27.606;2024-03-06T02:16:15;1.50;;;0.57;;
82797;SDS011;72540;62.834;27.606;2024-03-06T02:19:02;1.85;;;0.47;;
82797;SDS011;72540;62.834;27.606;2024-03-06T02:21:26;4.90;;;0.80;;
82797;SDS011;72540;62.834;27.606;2024-03-06T02:23:52;3.22;;;0.82;;
82797;SDS011;72540;62.834;27.606;2024-03-06T02:26:19;2.00;;;0.68;;
82797;SDS011;72540;62.834;27.606;2024-03-06T02:28:48;3.63;;;1.33;;
82797;SDS011;72540;62.834;27.606;2024-03-06T02:31:17;2.08;;;0.75;;
82797;SDS011;72540;62.834;27.606;2024-03-06T02:33:45;3.33;;;0.88;;
82797;SDS011;72540;62.834;27.606;2024-03-06T02:36:12;2.10;;;0.50;;
82797;SDS011;72540;62.834;27.606;2024-03-06T02:38:42;6.72;;;0.70;;
82797;SDS011;72540;62.834;27.606;2024-03-06T02:41:08;1.42;;;0.50;;
82797;SDS011;72540;62.834;27.606;2024-03-06T02:43:34;4.22;;;1.25;;
82797;SDS011;72540;62.834;27.606;2024-03-06T02:46:00;1.95;;;0.80;;
82797;SDS011;72540;62.834;27.606;2024-03-06T02:48:26;1.88;;;0.80;;
82797;SDS011;72540;62.834;27.606;2024-03-06T02:50:51;2.70;;;1.08;;
82797;SDS011;72540;62.834;27.606;2024-03-06T02:53:17;3.45;;;1.17;;
82797;SDS011;72540;62.834;27.606;2024-03-06T02:55:43;4.45;;;1.48;;
82797;SDS011;72540;62.834;27.606;2024-03-06T02:58:09;4.38;;;1.55;;
82797;SDS011;72540;62.834;27.606;2024-03-06T03:00:36;4.82;;;1.42;;
82797;SDS011;72540;62.834;27.606;2024-03-06T03:03:01;4.93;;;1.35;;
82797;SDS011;72540;62.834;27.606;2024-03-06T03:05:27;3.58;;;1.20;;
82797;SDS011;72540;62.834;27.606;2024-03-06T03:07:53;5.07;;;1.75;;
82797;SDS011;72540;62.834;27.606;2024-03-06T03:10:19;5.13;;;1.75;;
82797;SDS011;72540;62.834;27.606;2024-03-06T03:12:45;6.10;;;1.50;;
82797;SDS011;72540;62.834;27.606;2024-03-06T03:15:10;4.80;;;1.58;;
82797;SDS011;72540;62.834;27.606;2024-03-06T03:17:36;9.05;;;2.38;;
82797;SDS011;72540;62.834;27.606;2024-03-06T03:20:02;5.72;;;1.83;;
82797;SDS011;72540;62.834;27.606;2024-03-06T03:22:44;5.82;;;1.92;;
82797;SDS011;72540;62.834;27.606;2024-03-06T03:25:10;5.15;;;1.77;;
82797;SDS011;72540;62.834;27.606;2024-03-06T03:27:39;6.80;;;1.58;;
82797;SDS011;72540;62.834;27.606;2024-03-06T03:30:11;4.07;;;1.20;;
82797;SDS011;72540;62.834;27.606;2024-03-06T03:32:37;3.25;;;0.90;;
82797;SDS011;72540;62.834;27.606;2024-03-06T03:35:04;4.25;;;1.23;;
82797;SDS011;72540;62.834;27.606;2024-03-06T03:37:30;6.00;;;1.92;;
82797;SDS011;72540;62.834;27.606;2024-03-06T03:39:56;5.28;;;1.45;;
82797;SDS011;72540;62.834;27.606;2024-03-06T03:42:22;6.88;;;2.20;;
82797;SDS011;72540;62.834;27.606;2024-03-06T03:44:48;3.22;;;1.13;;
82797;SDS011;72540;62.834;27.606;2024-03-06T03:47:13;7.57;;;1.70;;
82797;SDS011;72540;62.834;27.606;2024-03-06T03:49:39;9.73;;;1.88;;
82797;SDS011;72540;62.834;27.606;2024-03-06T03:52:05;5.75;;;1.60;;
82797;SDS011;72540;62.834;27.606;2024-03-06T03:54:31;5.97;;;1.63;;
82797;SDS011;72540;62.834;27.606;2024-03-06T03:56:56;3.38;;;0.95;;
82797;SDS011;72540;62.834;27.606;2024-03-06T03:59:24;4.70;;;1.60;;
82797;SDS011;72540;62.834;27.606;2024-03-06T04:01:51;5.60;;;1.42;;
82797;SDS011;72540;62.834;27.606;2024-03-06T04:04:16;6.60;;;2.55;;
82797;SDS011;72540;62.834;27.606;2024-03-06T04:06:42;10.00;;;1.60;;
82797;SDS011;72540;62.834;27.606;2024-03-06T04:09:08;5.20;;;1.35;;
82797;SDS011;72540;62.834;27.606;2024-03-06T04:11:36;6.25;;;1.80;;
82797;SDS011;72540;62.834;27.606;2024-03-06T04:14:03;5.00;;;1.75;;
82797;SDS011;72540;62.834;27.606;2024-03-06T04:16:29;5.68;;;1.63;;
82797;SDS011;72540;62.834;27.606;2024-03-06T04:18:55;4.40;;;1.48;;
82797;SDS011;72540;62.834;27.606;2024-03-06T04:21:21;5.30;;;1.60;;
82797;SDS011;72540;62.834;27.606;2024-03-06T04:23:47;6.20;;;1.77;;
82797;SDS011;72540;62.834;27.606;2024-03-06T04:26:13;4.55;;;1.80;;
82797;SDS011;72540;62.834;27.606;2024-03-06T04:28:39;3.65;;;1.40;;
82797;SDS011;72540;62.834;27.606;2024-03-06T04:31:05;3.67;;;1.00;;
82797;SDS011;72540;62.834;27.606;2024-03-06T04:33:31;3.55;;;1.25;;
82797;SDS011;72540;62.834;27.606;2024-03-06T04:35:57;4.80;;;1.40;;
82797;SDS011;72540;62.834;27.606;2024-03-06T04:38:23;4.68;;;1.40;;
82797;SDS011;72540;62.834;27.606;2024-03-06T04:40:48;3.97;;;1.48;;
82797;SDS011;72540;62.834;27.606;2024-03-06T04:43:14;3.30;;;1.00;;
82797;SDS011;72540;62.834;27.606;2024-03-06T04:45:39;4.88;;;1.60;;
82797;SDS011;72540;62.834;27.606;2024-03-06T04:48:05;5.88;;;1.83;;
82797;SDS011;72540;62.834;27.606;2024-03-06T04:50:32;4.93;;;1.60;;
82797;SDS011;72540;62.834;27.606;2024-03-06T04:52:57;4.95;;;1.85;;
82797;SDS011;72540;62.834;27.606;2024-03-06T04:55:25;4.68;;;1.23;;
82797;SDS011;72540;62.834;27.606;2024-03-06T04:57:52;4.55;;;1.08;;
82797;SDS011;72540;62.834;27.606;2024-03-06T05:00:20;4.93;;;1.80;;
82797;SDS011;72540;62.834;27.606;2024-03-06T05:02:46;5.13;;;1.50;;
82797;SDS011;72540;62.834;27.606;2024-03-06T05:05:14;4.85;;;1.98;;
82797;SDS011;72540;62.834;27.606;2024-03-06T05:07:40;6.45;;;1.80;;
82797;SDS011;72540;62.834;27.606;2024-03-06T05:10:06;4.97;;;1.75;;
82797;SDS011;72540;62.834;27.606;2024-03-06T05:12:33;6.07;;;1.80;;
82797;SDS011;72540;62.834;27.606;2024-03-06T05:14:59;5.40;;;1.73;;
82797;SDS011;72540;62.834;27.606;2024-03-06T05:17:25;10.82;;;1.30;;
82797;SDS011;72540;62.834;27.606;2024-03-06T05:19:51;5.25;;;1.98;;
82797;SDS011;72540;62.834;27.606;2024-03-06T05:22:17;5.82;;;1.90;;
82797;SDS011;72540;62.834;27.606;2024-03-06T05:24:43;5.47;;;2.10;;
82797;SDS011;72540;62.834;27.606;2024-03-06T05:27:09;6.05;;;1.98;;
82797;SDS011;72540;62.834;27.606;2024-03-06T05:29:38;6.18;;;1.58;;
82797;SDS011;72540;62.834;27.606;2024-03-06T05:32:04;4.38;;;1.52;;
82797;SDS011;72540;62.834;27.606;2024-03-06T05:34:32;4.68;;;1.38;;
82797;SDS011;72540;62.834;27.606;2024-03-06T05:36:59;4.57;;;1.30;;
82797;SDS011;72540;62.834;27.606;2024-03-06T05:39:25;5.78;;;2.00;;
82797;SDS011;72540;62.834;27.606;2024-03-06T05:41:51;4.53;;;1.60;;
82797;SDS011;72540;62.834;27.606;2024-03-06T05:44:16;5.93;;;2.08;;
82797;SDS011;72540;62.834;27.606;2024-03-06T05:46:42;5.05;;;1.58;;
82797;SDS011;72540;62.834;27.606;2024-03-06T05:49:08;5.28;;;1.48;;
82797;SDS011;72540;62.834;27.606;2024-03-06T05:51:33;4.00;;;1.27;;
82797;SDS011;72540;62.834;27.606;2024-03-06T05:53:59;3.47;;;1.35;;
82797;SDS011;72540;62.834;27.606;2024-03-06T05:56:25;5.53;;;1.77;;
82797;SDS011;72540;62.834;27.606;2024-03-06T05:58:51;2.40;;;0.85;;
82797;SDS011;72540;62.834;27.606;2024-03-06T06:01:17;4.32;;;1.70;;
82797;SDS011;72540;62.834;27.606;2024-03-06T06:03:46;5.18;;;1.80;;
82797;SDS011;72540;62.834;27.606;2024-03-06T06:06:14;4.18;;;1.83;;
82797;SDS011;72540;62.834;27.606;2024-03-06T06:08:40;6.90;;;1.98;;
82797;SDS011;72540;62.834;27.606;2024-03-06T06:11:06;3.00;;;0.77;;
82797;SDS011;72540;62.834;27.606;2024-03-06T06:13:33;4.15;;;1.35;;
82797;SDS011;72540;62.834;27.606;2024-03-06T06:15:59;7.03;;;1.35;;
82797;SDS011;72540;62.834;27.606;2024-03-06T06:18:27;7.13;;;2.65;;
82797;SDS011;72540;62.834;27.606;2024-03-06T06:20:53;5.22;;;1.30;;
82797;SDS011;72540;62.834;27.606;2024-03-06T06:23:19;3.67;;;1.77;;
82797;SDS011;72540;62.834;27.606;2024-03-06T06:25:45;6.55;;;1.95;;
82797;SDS011;72540;62.834;27.606;2024-03-06T06:28:11;5.55;;;1.67;;
82797;SDS011;72540;62.834;27.606;2024-03-06T06:30:37;4.28;;;1.85;;
82797;SDS011;72540;62.834;27.606;2024-03-06T06:33:03;3.13;;;0.93;;
82797;SDS011;72540;62.834;27.606;2024-03-06T06:35:30;4.80;;;1.48;;
82797;SDS011;72540;62.834;27.606;2024-03-06T06:37:56;4.18;;;1.35;;
82797;SDS011;72540;62.834;27.606;2024-03-06T06:40:21;4.40;;;1.35;;
82797;SDS011;72540;62.834;27.606;2024-03-06T06:42:49;5.95;;;2.15;;
82797;SDS011;72540;62.834;27.606;2024-03-06T06:45:15;2.10;;;0.60;;
82797;SDS011;72540;62.834;27.606;2024-03-06T06:47:41;4.95;;;2.03;;
82797;SDS011;72540;62.834;27.606;2024-03-06T06:50:07;7.93;;;2.00;;
82797;SDS011;72540;62.834;27.606;2024-03-06T06:52:34;9.90;;;1.65;;
82797;SDS011;72540;62.834;27.606;2024-03-06T06:55:00;6.28;;;1.10;;
82797;SDS011;72540;62.834;27.606;2024-03-06T06:57:27;3.28;;;0.95;;
82797;SDS011;72540;62.834;27.606;2024-03-06T06:59:52;2.95;;;1.13;;
82797;SDS011;72540;62.834;27.606;2024-03-06T07:02:18;6.72;;;1.48;;
82797;SDS011;72540;62.834;27.606;2024-03-06T07:04:44;5.28;;;1.77;;
82797;SDS011;72540;62.834;27.606;2024-03-06T07:07:09;4.18;;;1.40;;
82797;SDS011;72540;62.834;27.606;2024-03-06T07:09:35;3.97;;;1.67;;
82797;SDS011;72540;62.834;27.606;2024-03-06T07:12:01;5.30;;;1.17;;
82797;SDS011;72540;62.834;27.606;2024-03-06T07:14:28;6.88;;;1.55;;
82797;SDS011;72540;62.834;27.606;2024-03-06T07:16:54;6.88;;;2.03;;
82797;SDS011;72540;62.834;27.606;2024-03-06T07:19:19;5.75;;;1.52;;
82797;SDS011;72540;62.834;27.606;2024-03-06T07:21:45;2.75;;;0.90;;
82797;SDS011;72540;62.834;27.606;2024-03-06T07:24:11;5.78;;;1.80;;
82797;SDS011;72540;62.834;27.606;2024-03-06T07:26:37;5.05;;;1.33;;
82797;SDS011;72540;62.834;27.606;2024-03-06T07:29:02;5.63;;;2.10;;
82797;SDS011;72540;62.834;27.606;2024-03-06T07:31:28;5.97;;;1.85;;
82797;SDS011;72540;62.834;27.606;2024-03-06T07:33:54;7.40;;;2.05;;
82797;SDS011;72540;62.834;27.606;2024-03-06T07:36:20;4.65;;;1.48;;
82797;SDS011;72540;62.834;27.606;2024-03-06T07:38:47;5.03;;;1.50;;
82797;SDS011;72540;62.834;27.606;2024-03-06T07:41:12;5.20;;;1.45;;
82797;SDS011;72540;62.834;27.606;2024-03-06T07:43:38;7.50;;;1.90;;
82797;SDS011;72540;62.834;27.606;2024-03-06T07:46:04;6.57;;;1.77;;
82797;SDS011;72540;62.834;27.606;2024-03-06T07:48:38;6.00;;;1.60;;
82797;SDS011;72540;62.834;27.606;2024-03-06T07:51:09;5.13;;;1.35;;
82797;SDS011;72540;62.834;27.606;2024-03-06T07:53:35;4.45;;;1.65;;
82797;SDS011;72540;62.834;27.606;2024-03-06T07:56:01;6.45;;;2.05;;
82797;SDS011;72540;62.834;27.606;2024-03-06T07:58:28;6.55;;;1.88;;
82797;SDS011;72540;62.834;27.606;2024-03-06T08:00:54;4.60;;;1.40;;
82797;SDS011;72540;62.834;27.606;2024-03-06T08:03:24;7.65;;;1.65;;
82797;SDS011;72540;62.834;27.606;2024-03-06T08:05:50;6.60;;;1.92;;
82797;SDS011;72540;62.834;27.606;2024-03-06T08:08:18;7.45;;;1.70;;
82797;SDS011;72540;62.834;27.606;2024-03-06T08:10:44;7.47;;;1.85;;
82797;SDS011;72540;62.834;27.606;2024-03-06T08:13:12;6.10;;;1.42;;
82797;SDS011;72540;62.834;27.606;2024-03-06T08:15:38;5.40;;;1.67;;
82797;SDS011;72540;62.834;27.606;2024-03-06T08:18:05;7.50;;;2.20;;
82797;SDS011;72540;62.834;27.606;2024-03-06T08:20:31;5.65;;;1.55;;
82797;SDS011;72540;62.834;27.606;2024-03-06T08:22:58;6.60;;;2.05;;
82797;SDS011;72540;62.834;27.606;2024-03-06T08:25:23;5.80;;;1.77;;
82797;SDS011;72540;62.834;27.606;2024-03-06T08:27:49;7.53;;;1.77;;
82797;SDS011;72540;62.834;27.606;2024-03-06T08:30:15;6.43;;;1.92;;
82797;SDS011;72540;62.834;27.606;2024-03-06T08:32:41;6.68;;;2.00;;
82797;SDS011;72540;62.834;27.606;2024-03-06T08:35:09;6.00;;;1.40;;
82797;SDS011;72540;62.834;27.606;2024-03-06T08:37:40;7.50;;;1.95;;
82797;SDS011;72540;62.834;27.606;2024-03-06T08:40:06;6.93;;;1.83;;
82797;SDS011;72540;62.834;27.606;2024-03-06T08:42:45;7.68;;;1.75;;
82797;SDS011;72540;62.834;27.606;2024-03-06T08:45:14;7.65;;;2.90;;
82797;SDS011;72540;62.834;27.606;2024-03-06T08:47:46;7.30;;;2.22;;
82797;SDS011;72540;62.834;27.606;2024-03-06T08:50:13;6.43;;;2.00;;
82797;SDS011;72540;62.834;27.606;2024-03-06T08:52:39;9.70;;;2.20;;
82797;SDS011;72540;62.834;27.606;2024-03-06T08:55:06;6.45;;;2.00;;
82797;SDS011;72540;62.834;27.606;2024-03-06T08:57:36;6.03;;;1.83;;
82797;SDS011;72540;62.834;27.606;2024-03-06T09:00:02;9.75;;;2.60;;
82797;SDS011;72540;62.834;27.606;2024-03-06T09:02:29;7.25;;;2.22;;
82797;SDS011;72540;62.834;27.606;2024-03-06T09:04:54;10.35;;;3.03;;
82797;SDS011;72540;62.834;27.606;2024-03-06T09:07:20;7.57;;;1.98;;
82797;SDS011;72540;62.834;27.606;2024-03-06T09:09:49;7.88;;;2.22;;
82797;SDS011;72540;62.834;27.606;2024-03-06T09:12:16;6.70;;;1.70;;
82797;SDS011;72540;62.834;27.606;2024-03-06T09:14:43;7.22;;;1.85;;
82797;SDS011;72540;62.834;27.606;2024-03-06T09:17:10;7.60;;;2.20;;
82797;SDS011;72540;62.834;27.606;2024-03-06T09:19:39;7.90;;;2.45;;
82797;SDS011;72540;62.834;27.606;2024-03-06T09:22:06;6.38;;;1.88;;
82797;SDS011;72540;62.834;27.606;2024-03-06T09:24:32;6.63;;;1.90;;
82797;SDS011;72540;62.834;27.606;2024-03-06T09:26:58;8.55;;;2.40;;
82797;SDS011;72540;62.834;27.606;2024-03-06T09:29:24;6.85;;;1.92;;
82797;SDS011;72540;62.834;27.606;2024-03-06T09:31:50;13.00;;;2.17;;
82797;SDS011;72540;62.834;27.606;2024-03-06T09:34:16;6.75;;;2.00;;
82797;SDS011;72540;62.834;27.606;2024-03-06T09:36:42;7.05;;;2.65;;
82797;SDS011;72540;62.834;27.606;2024-03-06T09:39:11;6.82;;;2.05;;
82797;SDS011;72540;62.834;27.606;2024-03-06T09:41:37;6.78;;;2.42;;
82797;SDS011;72540;62.834;27.606;2024-03-06T09:44:06;7.60;;;2.38;;
82797;SDS011;72540;62.834;27.606;2024-03-06T09:46:33;5.28;;;1.75;;
82797;SDS011;72540;62.834;27.606;2024-03-06T09:48:59;7.38;;;2.00;;
82797;SDS011;72540;62.834;27.606;2024-03-06T09:51:26;8.10;;;2.47;;
82797;SDS011;72540;62.834;27.606;2024-03-06T09:53:53;7.13;;;1.70;;
82797;SDS011;72540;62.834;27.606;2024-03-06T09:56:19;8.55;;;2.47;;
82797;SDS011;72540;62.834;27.606;2024-03-06T09:58:45;7.80;;;2.42;;
82797;SDS011;72540;62.834;27.606;2024-03-06T10:01:12;8.65;;;2.90;;
82797;SDS011;72540;62.834;27.606;2024-03-06T10:03:38;6.55;;;2.03;;
82797;SDS011;72540;62.834;27.606;2024-03-06T10:06:08;7.63;;;1.80;;
82797;SDS011;72540;62.834;27.606;2024-03-06T10:08:34;7.57;;;2.40;;
82797;SDS011;72540;62.834;27.606;2024-03-06T10:11:00;7.55;;;2.03;;
82797;SDS011;72540;62.834;27.606;2024-03-06T10:13:26;7.68;;;1.80;;
82797;SDS011;72540;62.834;27.606;2024-03-06T10:16:02;6.95;;;2.03;;
82797;SDS011;72540;62.834;27.606;2024-03-06T10:18:29;7.00;;;1.50;;
82797;SDS011;72540;62.834;27.606;2024-03-06T10:20:56;6.00;;;1.55;;
82797;SDS011;72540;62.834;27.606;2024-03-06T10:23:22;6.05;;;1.60;;
82797;SDS011;72540;62.834;27.606;2024-03-06T10:25:49;6.05;;;1.48;;
82797;SDS011;72540;62.834;27.606;2024-03-06T10:28:18;5.57;;;1.38;;
82797;SDS011;72540;62.834;27.606;2024-03-06T10:30:45;5.65;;;1.30;;
82797;SDS011;72540;62.834;27.606;2024-03-06T10:33:12;6.30;;;2.13;;
82797;SDS011;72540;62.834;27.606;2024-03-06T10:35:43;4.35;;;1.23;;
82797;SDS011;72540;62.834;27.606;2024-03-06T10:38:10;5.03;;;1.48;;
82797;SDS011;72540;62.834;27.606;2024-03-06T10:40:42;5.00;;;1.38;;
82797;SDS011;72540;62.834;27.606;2024-03-06T10:43:09;5.90;;;1.52;;
82797;SDS011;72540;62.834;27.606;2024-03-06T10:45:48;4.88;;;1.65;;
82797;SDS011;72540;62.834;27.606;2024-03-06T10:48:19;4.50;;;1.20;;
82797;SDS011;72540;62.834;27.606;2024-03-06T10:50:45;6.70;;;1.67;;
82797;SDS011;72540;62.834;27.606;2024-03-06T10:53:14;3.83;;;1.15;;
82797;SDS011;72540;62.834;27.606;2024-03-06T10:55:43;4.30;;;1.15;;
82797;SDS011;72540;62.834;27.606;2024-03-06T10:58:12;5.65;;;1.40;;
82797;SDS011;72540;62.834;27.606;2024-03-06T11:00:40;5.30;;;1.40;;
82797;SDS011;72540;62.834;27.606;2024-03-06T11:03:07;5.07;;;1.45;;
82797;SDS011;72540;62.834;27.606;2024-03-06T11:05:37;3.67;;;1.00;;
82797;SDS011;72540;62.834;27.606;2024-03-06T11:08:13;4.88;;;1.33;;
82797;SDS011;72540;62.834;27.606;2024-03-06T11:10:41;3.50;;;1.23;;
82797;SDS011;72540;62.834;27.606;2024-03-06T11:15:46;4.07;;;1.13;;
82797;SDS011;72540;62.834;27.606;2024-03-06T11:20:58;4.30;;;1.13;;
82797;SDS011;72540;62.834;27.606;2024-03-06T11:23:28;4.45;;;1.25;;
82797;SDS011;72540;62.834;27.606;2024-03-06T11:25:55;5.75;;;1.55;;
82797;SDS011;72540;62.834;27.606;2024-03-06T11:28:34;4.28;;;1.25;;
82797;SDS011;72540;62.834;27.606;2024-03-06T11:31:01;3.42;;;1.10;;
82797;SDS011;72540;62.834;27.606;2024-03-06T11:33:34;7.13;;;1.30;;
82797;SDS011;72540;62.834;27.606;2024-03-06T11:36:13;4.95;;;1.25;;
82797;SDS011;72540;62.834;27.606;2024-03-06T11:41:31;5.18;;;1.40;;
82797;SDS011;72540;62.834;27.606;2024-03-06T11:44:01;3.63;;;1.13;;
82797;SDS011;72540;62.834;27.606;2024-03-06T11:46:45;3.50;;;1.00;;
82797;SDS011;72540;62.834;27.606;2024-03-06T11:49:15;3.00;;;1.02;;
82797;SDS011;72540;62.834;27.606;2024-03-06T11:51:43;9.73;;;1.42;;
82797;SDS011;72540;62.834;27.606;2024-03-06T11:54:10;4.78;;;1.55;;
82797;SDS011;72540;62.834;27.606;2024-03-06T11:56:36;4.32;;;1.38;;
82797;SDS011;72540;62.834;27.606;2024-03-06T11:59:04;2.88;;;0.90;;
82797;SDS011;72540;62.834;27.606;2024-03-06T12:01:32;3.80;;;1.00;;
82797;SDS011;72540;62.834;27.606;2024-03-06T12:03:58;4.53;;;0.90;;
82797;SDS011;72540;62.834;27.606;2024-03-06T12:06:27;3.75;;;1.23;;
82797;SDS011;72540;62.834;27.606;2024-03-06T12:08:53;3.92;;;1.08;;
82797;SDS011;72540;62.834;27.606;2024-03-06T12:11:19;5.53;;;1.48;;
82797;SDS011;72540;62.834;27.606;2024-03-06T12:13:49;4.25;;;1.23;;
82797;SDS011;72540;62.834;27.606;2024-03-06T12:16:16;3.88;;;1.13;;
82797;SDS011;72540;62.834;27.606;2024-03-06T12:18:42;5.50;;;1.38;;
82797;SDS011;72540;62.834;27.606;2024-03-06T12:21:10;4.75;;;1.23;;
82797;SDS011;72540;62.834;27.606;2024-03-06T12:23:36;4.15;;;1.40;;
82797;SDS011;72540;62.834;27.606;2024-03-06T12:26:02;5.35;;;1.45;;
82797;SDS011;72540;62.834;27.606;2024-03-06T12:28:28;3.13;;;0.90;;
82797;SDS011;72540;62.834;27.606;2024-03-06T12:30:54;5.20;;;1.60;;
82797;SDS011;72540;62.834;27.606;2024-03-06T12:33:19;5.63;;;1.70;;
82797;SDS011;72540;62.834;27.606;2024-03-06T12:35:45;7.32;;;1.52;;
82797;SDS011;72540;62.834;27.606;2024-03-06T12:38:14;5.20;;;1.33;;
82797;SDS011;72540;62.834;27.606;2024-03-06T12:40:41;5.00;;;1.70;;
82797;SDS011;72540;62.834;27.606;2024-03-06T12:43:07;3.50;;;1.05;;
82797;SDS011;72540;62.834;27.606;2024-03-06T12:45:34;3.42;;;1.00;;
82797;SDS011;72540;62.834;27.606;2024-03-06T12:48:01;4.57;;;1.42;;
82797;SDS011;72540;62.834;27.606;2024-03-06T12:50:28;3.03;;;0.98;;
82797;SDS011;72540;62.834;27.606;2024-03-06T12:52:53;4.22;;;0.98;;
82797;SDS011;72540;62.834;27.606;2024-03-06T12:55:19;4.03;;;1.30;;
82797;SDS011;72540;62.834;27.606;2024-03-06T12:57:45;3.40;;;1.10;;
82797;SDS011;72540;62.834;27.606;2024-03-06T13:00:11;2.35;;;0.85;;
82797;SDS011;72540;62.834;27.606;2024-03-06T13:02:44;3.67;;;1.15;;
82797;SDS011;72540;62.834;27.606;2024-03-06T13:05:10;4.63;;;1.48;;
82797;SDS011;72540;62.834;27.606;2024-03-06T13:07:36;3.55;;;1.15;;
82797;SDS011;72540;62.834;27.606;2024-03-06T13:10:03;4.05;;;1.00;;
82797;SDS011;72540;62.834;27.606;2024-03-06T13:12:29;6.18;;;1.20;;
82797;SDS011;72540;62.834;27.606;2024-03-06T13:14:55;4.30;;;1.25;;
82797;SDS011;72540;62.834;27.606;2024-03-06T13:17:21;4.07;;;1.08;;
82797;SDS011;72540;62.834;27.606;2024-03-06T13:19:46;4.43;;;1.20;;
82797;SDS011;72540;62.834;27.606;2024-03-06T13:22:12;5.47;;;1.58;;
82797;SDS011;72540;62.834;27.606;2024-03-06T13:24:38;4.45;;;1.50;;
82797;SDS011;72540;62.834;27.606;2024-03-06T13:27:04;4.57;;;1.17;;
82797;SDS011;72540;62.834;27.606;2024-03-06T13:29:30;3.25;;;1.08;;
82797;SDS011;72540;62.834;27.606;2024-03-06T13:31:56;5.65;;;1.33;;
82797;SDS011;72540;62.834;27.606;2024-03-06T13:34:21;4.53;;;1.55;;
82797;SDS011;72540;62.834;27.606;2024-03-06T13:36:47;3.08;;;1.10;;
82797;SDS011;72540;62.834;27.606;2024-03-06T13:39:13;3.72;;;1.13;;
82797;SDS011;72540;62.834;27.606;2024-03-06T13:41:38;4.80;;;1.38;;
82797;SDS011;72540;62.834;27.606;2024-03-06T13:44:06;5.10;;;1.38;;
82797;SDS011;72540;62.834;27.606;2024-03-06T13:46:33;4.88;;;1.27;;
82797;SDS011;72540;62.834;27.606;2024-03-06T13:48:58;4.28;;;1.15;;
82797;SDS011;72540;62.834;27.606;2024-03-06T13:51:25;3.65;;;0.93;;
82797;SDS011;72540;62.834;27.606;2024-03-06T13:53:51;3.55;;;1.23;;
82797;SDS011;72540;62.834;27.606;2024-03-06T13:56:16;7.45;;;1.20;;
82797;SDS011;72540;62.834;27.606;2024-03-06T13:58:43;3.78;;;1.00;;
82797;SDS011;72540;62.834;27.606;2024-03-06T14:01:09;3.58;;;0.90;;
82797;SDS011;72540;62.834;27.606;2024-03-06T14:03:35;2.30;;;0.82;;
82797;SDS011;72540;62.834;27.606;2024-03-06T14:06:03;4.18;;;1.35;;
82797;SDS011;72540;62.834;27.606;2024-03-06T14:08:29;4.28;;;1.05;;
82797;SDS011;72540;62.834;27.606;2024-03-06T14:10:54;3.42;;;1.00;;
82797;SDS011;72540;62.834;27.606;2024-03-06T14:13:20;3.15;;;0.73;;
82797;SDS011;72540;62.834;27.606;2024-03-06T14:15:45;2.55;;;0.90;;
82797;SDS011;72540;62.834;27.606;2024-03-06T14:18:13;3.33;;;1.05;;
82797;SDS011;72540;62.834;27.606;2024-03-06T14:20:39;4.70;;;1.30;;
82797;SDS011;72540;62.834;27.606;2024-03-06T14:23:04;3.25;;;1.13;;
82797;SDS011;72540;62.834;27.606;2024-03-06T14:25:30;4.97;;;1.30;;
82797;SDS011;72540;62.834;27.606;2024-03-06T14:28:00;4.00;;;1.45;;
82797;SDS011;72540;62.834;27.606;2024-03-06T14:30:26;2.60;;;0.80;;
82797;SDS011;72540;62.834;27.606;2024-03-06T14:32:52;4.78;;;1.45;;
82797;SDS011;72540;62.834;27.606;2024-03-06T14:35:18;3.35;;;1.13;;
82797;SDS011;72540;62.834;27.606;2024-03-06T14:37:43;5.90;;;1.05;;
82797;SDS011;72540;62.834;27.606;2024-03-06T14:40:10;2.75;;;0.90;;